createdAt,value
2018-12-08T00:00:42.866Z,55.9
2018-12-08T00:01:33.223Z,55.9
2018-12-08T00:02:23.208Z,55.9
2018-12-08T00:03:13.001Z,55.9
2018-12-08T00:04:02.766Z,55.9
2018-12-08T00:04:53.366Z,55.9
2018-12-08T00:05:43.163Z,55.9
2018-12-08T00:06:33.780Z,55.9
2018-12-08T00:24:45.682Z,55.7
2018-12-08T00:25:36.009Z,55.7
2018-12-08T00:26:26.369Z,55.7
2018-12-08T00:27:15.832Z,55.7
2018-12-08T00:28:05.682Z,55.7
2018-12-08T00:28:55.409Z,55.7
2018-12-08T00:29:46.043Z,55.6
2018-12-08T00:30:36.169Z,55.7
2018-12-08T00:31:26.657Z,55.7
2018-12-08T00:32:16.286Z,55.7
2018-12-08T00:33:05.951Z,55.6
2018-12-08T00:33:56.689Z,55.6
2018-12-08T00:34:46.656Z,55.6
2018-12-08T00:35:36.410Z,55.6
2018-12-08T00:36:26.189Z,55.6
2018-12-08T00:37:16.613Z,55.6
2018-12-08T00:38:06.306Z,55.6
2018-12-08T00:38:56.663Z,55.6
2018-12-08T00:39:46.945Z,55.6
2018-12-08T00:40:37.284Z,55.6
2018-12-08T00:41:27.335Z,55.6
2018-12-08T00:42:16.311Z,55.6
2018-12-08T00:43:06.690Z,55.6
2018-12-08T00:43:57.257Z,55.6
2018-12-08T00:44:46.215Z,55.6
2018-12-08T00:45:37.145Z,55.6
2018-12-08T00:46:27.271Z,55.5
2018-12-08T00:47:17.024Z,55.5
2018-12-08T00:48:06.712Z,55.5
2018-12-08T00:48:57.616Z,55.5
2018-12-08T00:49:46.617Z,55.5
2018-12-08T00:50:37.450Z,55.5
2018-12-08T00:51:27.503Z,55.5
2018-12-08T00:52:16.985Z,55.5
2018-12-08T00:53:06.895Z,55.5
2018-12-08T00:53:57.400Z,55.5
2018-12-08T00:54:47.490Z,55.4
2018-12-08T00:55:38.162Z,55.4
2018-12-08T00:56:27.885Z,55.4
2018-12-08T00:57:17.610Z,55.4
2018-12-08T00:58:08.343Z,55.4
2018-12-08T00:58:58.002Z,55.4
2018-12-08T00:59:48.417Z,55.4
2018-12-08T01:00:38.365Z,55.4
2018-12-08T01:01:28.188Z,55.4
2018-12-08T01:02:18.649Z,55.4
2018-12-08T01:03:08.332Z,55.4
2018-12-08T01:03:57.824Z,55.4
2018-12-08T01:04:48.454Z,55.4
2018-12-08T01:05:38.457Z,55.4
2018-12-08T01:06:28.246Z,55.4
2018-12-08T01:07:18.334Z,55.4
2018-12-08T01:08:08.392Z,55.3
2018-12-08T01:08:58.139Z,55.3
2018-12-08T01:09:49.018Z,55.3
2018-12-08T01:10:39.637Z,55.3
2018-12-08T01:11:28.874Z,55.3
2018-12-08T01:12:18.894Z,55.3
2018-12-08T01:13:09.254Z,55.3
2018-12-08T01:13:58.778Z,55.3
2018-12-08T01:14:49.356Z,55.3
2018-12-08T01:15:39.426Z,55.3
2018-12-08T01:16:28.961Z,55.3
2018-12-08T01:17:19.664Z,55.3
2018-12-08T01:18:09.065Z,55.3
2018-12-08T01:18:59.637Z,55.3
2018-12-08T01:19:49.961Z,55.3
2018-12-08T01:20:39.748Z,55.3
2018-12-08T01:21:29.874Z,55.3
2018-12-08T01:22:19.986Z,55.3
2018-12-08T01:23:09.956Z,55.2
2018-12-08T01:23:59.536Z,55.2
2018-12-08T01:24:49.327Z,55.2
2018-12-08T01:25:39.981Z,55.2
2018-12-08T01:26:30.452Z,55.2
2018-12-08T01:27:19.680Z,55.2
2018-12-08T01:28:09.803Z,55.2
2018-12-08T01:28:59.805Z,55.2
2018-12-08T01:29:49.855Z,55.1
2018-12-08T01:30:40.285Z,55.1
2018-12-08T01:31:29.262Z,55.1
2018-12-08T01:32:20.040Z,55.1
2018-12-08T01:33:11.155Z,55.1
2018-12-08T01:34:00.147Z,55.1
2018-12-08T01:34:50.000Z,55.1
2018-12-08T01:35:40.809Z,55.1
2018-12-08T01:36:30.370Z,55.1
2018-12-08T01:37:19.884Z,55.1
2018-12-08T01:38:10.226Z,55.1
2018-12-08T01:39:01.019Z,55.1
2018-12-08T01:39:50.521Z,55.1
2018-12-08T01:40:40.576Z,55.1
2018-12-08T01:41:30.676Z,55.1
2018-12-08T01:42:20.808Z,55.1
2018-12-08T01:43:11.039Z,55.1
2018-12-08T01:44:01.374Z,55.1
2018-12-08T01:44:51.420Z,55.1
2018-12-08T01:45:40.950Z,55
2018-12-08T01:46:31.246Z,55
2018-12-08T01:47:20.772Z,55
2018-12-08T01:48:10.361Z,55
2018-12-08T01:49:01.255Z,55
2018-12-08T01:49:51.265Z,55
2018-12-08T01:50:41.269Z,55
2018-12-08T01:51:31.387Z,55
2018-12-08T01:52:21.380Z,54.9
2018-12-08T01:53:11.445Z,54.9
2018-12-08T01:54:01.765Z,54.9
2018-12-08T01:54:52.207Z,54.9
2018-12-08T01:55:41.125Z,54.9
2018-12-08T01:56:30.924Z,54.9
2018-12-08T01:57:22.276Z,54.9
2018-12-08T01:58:12.067Z,54.9
2018-12-08T01:59:01.572Z,54.9
2018-12-08T01:59:52.425Z,54.9
2018-12-08T02:00:42.229Z,54.9
2018-12-08T02:01:31.860Z,54.9
2018-12-08T02:02:22.619Z,54.9
2018-12-08T02:03:12.679Z,54.9
2018-12-08T02:04:02.015Z,54.9
2018-12-08T02:04:52.531Z,54.9
2018-12-08T02:05:42.032Z,54.9
2018-12-08T02:06:33.206Z,54.9
2018-12-08T02:07:22.403Z,54.9
2018-12-08T02:08:11.733Z,54.9
2018-12-08T02:09:02.353Z,54.8
2018-12-08T02:09:52.766Z,54.8
2018-12-08T02:10:42.429Z,54.8
2018-12-08T02:11:32.710Z,54.8
2018-12-08T02:12:22.998Z,54.8
2018-12-08T02:13:12.818Z,54.8
2018-12-08T02:14:02.915Z,54.8
2018-12-08T02:14:52.733Z,54.8
2018-12-08T02:15:41.960Z,54.8
2018-12-08T02:16:32.843Z,54.8
2018-12-08T02:17:23.150Z,54.8
2018-12-08T02:18:12.402Z,54.8
2018-12-08T02:19:03.025Z,54.8
2018-12-08T02:19:51.795Z,54.8
2018-12-08T02:20:43.407Z,54.8
2018-12-08T02:21:32.632Z,54.7
2018-12-08T02:22:23.070Z,54.7
2018-12-08T02:23:13.012Z,54.7
2018-12-08T02:24:03.135Z,54.7
2018-12-08T02:24:53.531Z,54.7
2018-12-08T02:25:43.752Z,54.7
2018-12-08T02:26:33.328Z,54.7
2018-12-08T02:27:23.297Z,54.7
2018-12-08T02:28:13.637Z,54.7
2018-12-08T02:29:02.939Z,54.7
2018-12-08T02:29:53.484Z,54.6
2018-12-08T02:30:44.101Z,54.6
2018-12-08T02:31:33.900Z,54.6
2018-12-08T02:32:24.024Z,54.6
2018-12-08T02:33:17.306Z,54.6
2018-12-08T02:34:04.338Z,54.6
2018-12-08T02:34:53.899Z,54.6
2018-12-08T02:35:44.191Z,54.6
2018-12-08T02:36:34.273Z,54.6
2018-12-08T02:37:24.318Z,54.6
2018-12-08T02:38:13.865Z,54.6
2018-12-08T02:39:04.730Z,54.6
2018-12-08T02:39:54.741Z,54.6
2018-12-08T02:40:45.261Z,54.6
2018-12-08T02:41:34.591Z,54.6
2018-12-08T02:42:24.915Z,54.6
2018-12-08T02:43:15.505Z,54.6
2018-12-08T02:44:05.537Z,54.6
2018-12-08T02:44:55.033Z,54.5
2018-12-08T02:45:45.326Z,54.6
2018-12-08T02:46:34.442Z,54.5
2018-12-08T02:47:25.204Z,54.5
2018-12-08T02:48:15.234Z,54.5
2018-12-08T02:49:05.697Z,54.5
2018-12-08T02:49:55.047Z,54.5
2018-12-08T02:50:45.683Z,54.5
2018-12-08T02:51:35.978Z,54.4
2018-12-08T02:52:25.803Z,54.4
2018-12-08T02:53:15.919Z,54.4
2018-12-08T02:54:05.874Z,54.4
2018-12-08T02:54:55.754Z,54.4
2018-12-08T02:55:45.738Z,54.4
2018-12-08T02:56:36.281Z,54.4
2018-12-08T02:57:25.869Z,54.4
2018-12-08T02:58:15.933Z,54.4
2018-12-08T02:59:05.265Z,54.4
2018-12-08T02:59:56.423Z,54.4
2018-12-08T03:00:46.066Z,54.4
2018-12-08T03:01:36.160Z,54.4
2018-12-08T03:02:26.191Z,54.4
2018-12-08T03:03:16.224Z,54.4
2018-12-08T03:04:07.128Z,54.4
2018-12-08T03:04:56.966Z,54.4
2018-12-08T03:05:46.258Z,54.4
2018-12-08T03:06:36.016Z,54.3
2018-12-08T03:07:25.797Z,54.4
2018-12-08T03:08:15.893Z,54.3
2018-12-08T03:09:07.247Z,54.3
2018-12-08T03:09:56.453Z,54.3
2018-12-08T03:10:46.794Z,54.3
2018-12-08T03:11:37.114Z,54.3
2018-12-08T03:12:26.600Z,54.3
2018-12-08T03:13:17.824Z,54.3
2018-12-08T03:14:07.055Z,54.3
2018-12-08T03:14:57.082Z,54.3
2018-12-08T03:15:46.657Z,54.3
2018-12-08T03:16:36.995Z,54.3
2018-12-08T03:17:27.772Z,54.3
2018-12-08T03:18:17.562Z,54.3
2018-12-08T03:19:07.834Z,54.3
2018-12-08T03:19:58.217Z,54.3
2018-12-08T03:20:47.449Z,54.3
2018-12-08T03:21:37.806Z,54.3
2018-12-08T03:22:28.103Z,54.3
2018-12-08T03:23:18.328Z,54.2
2018-12-08T03:24:07.952Z,54.2
2018-12-08T03:24:57.754Z,54.2
2018-12-08T03:25:48.364Z,54.2
2018-12-08T03:26:38.661Z,54.2
2018-12-08T03:27:28.746Z,54.2
2018-12-08T03:28:18.524Z,54.2
2018-12-08T03:29:08.061Z,54.2
2018-12-08T03:29:58.085Z,54.2
2018-12-08T03:30:50.439Z,54.1
2018-12-08T03:31:38.568Z,54.1
2018-12-08T03:32:28.435Z,54.1
2018-12-08T03:33:18.455Z,54.1
2018-12-08T03:34:09.060Z,54.1
2018-12-08T03:34:58.146Z,54.1
2018-12-08T03:35:48.787Z,54.1
2018-12-08T03:36:38.533Z,54.1
2018-12-08T03:37:28.327Z,54.1
2018-12-08T03:38:18.681Z,54.1
2018-12-08T03:39:09.274Z,54.1
2018-12-08T03:39:59.046Z,54.1
2018-12-08T03:40:49.695Z,54.1
2018-12-08T03:41:38.896Z,54.1
2018-12-08T03:42:28.400Z,54.1
2018-12-08T03:43:18.182Z,54.1
2018-12-08T03:44:09.430Z,54.1
2018-12-08T03:44:59.493Z,54.1
2018-12-08T03:45:49.445Z,54
2018-12-08T03:46:38.970Z,54
2018-12-08T03:47:28.757Z,54.1
2018-12-08T03:48:19.356Z,54
2018-12-08T03:49:09.729Z,54
2018-12-08T03:49:59.492Z,54
2018-12-08T03:50:49.949Z,54
2018-12-08T03:51:40.119Z,54
2018-12-08T03:52:29.995Z,54
2018-12-08T03:53:19.995Z,53.9
2018-12-08T03:54:10.068Z,53.9
2018-12-08T03:54:59.850Z,53.9
2018-12-08T03:55:49.681Z,53.9
2018-12-08T03:56:39.483Z,53.9
2018-12-08T03:57:30.171Z,53.9
2018-12-08T03:58:19.561Z,53.9
2018-12-08T03:59:10.675Z,53.9
2018-12-08T04:00:00.472Z,53.9
2018-12-08T04:00:49.777Z,53.9
2018-12-08T04:01:40.818Z,53.9
2018-12-08T04:02:30.609Z,53.9
2018-12-08T04:03:19.814Z,53.9
2018-12-08T04:04:10.710Z,53.9
2018-12-08T04:05:00.243Z,53.9
2018-12-08T04:05:50.619Z,53.9
2018-12-08T04:06:40.330Z,53.9
2018-12-08T04:07:31.234Z,53.8
2018-12-08T04:08:20.720Z,53.8
2018-12-08T04:09:11.323Z,53.8
2018-12-08T04:10:00.886Z,53.8
2018-12-08T04:10:51.413Z,53.8
2018-12-08T04:11:41.227Z,53.8
2018-12-08T04:12:31.002Z,53.8
2018-12-08T04:13:20.815Z,53.8
2018-12-08T04:14:10.881Z,53.8
2018-12-08T04:15:01.191Z,53.8
2018-12-08T04:15:51.497Z,53.8
2018-12-08T04:16:41.808Z,53.8
2018-12-08T04:17:31.902Z,53.8
2018-12-08T04:18:21.956Z,53.8
2018-12-08T04:19:11.420Z,53.8
2018-12-08T04:20:01.927Z,53.8
2018-12-08T04:20:51.851Z,53.8
2018-12-08T04:21:41.899Z,53.8
2018-12-08T04:22:32.269Z,53.8
2018-12-08T04:23:22.118Z,53.8
2018-12-08T04:24:12.371Z,53.8
2018-12-08T04:25:01.875Z,53.7
2018-12-08T04:25:52.752Z,53.7
2018-12-08T04:26:41.710Z,53.7
2018-12-08T04:27:31.467Z,53.7
2018-12-08T04:28:22.194Z,53.7
2018-12-08T04:29:12.416Z,53.7
2018-12-08T04:30:02.469Z,53.6
2018-12-08T04:30:53.221Z,53.6
2018-12-08T04:31:42.833Z,53.7
2018-12-08T04:32:32.409Z,53.6
2018-12-08T04:33:22.447Z,53.6
2018-12-08T04:34:12.504Z,53.6
2018-12-08T04:35:02.579Z,53.6
2018-12-08T04:35:52.068Z,53.6
2018-12-08T04:36:42.354Z,53.6
2018-12-08T04:54:01.764Z,53.4
2018-12-08T04:54:51.884Z,53.4
2018-12-08T04:55:41.097Z,53.4
2018-12-08T04:56:31.707Z,53.4
2018-12-08T04:57:21.464Z,53.4
2018-12-08T04:58:11.516Z,53.4
2018-12-08T04:59:01.577Z,53.4
2018-12-08T04:59:51.656Z,53.4
2018-12-08T05:00:41.697Z,53.4
2018-12-08T05:01:31.786Z,53.4
2018-12-08T05:02:22.191Z,53.4
2018-12-08T05:03:11.026Z,53.4
2018-12-08T05:04:01.824Z,53.4
2018-12-08T05:04:51.696Z,53.4
2018-12-08T05:05:42.006Z,53.4
2018-12-08T05:06:31.798Z,53.4
2018-12-08T05:07:22.659Z,53.4
2018-12-08T05:08:12.174Z,53.4
2018-12-08T05:09:01.939Z,53.4
2018-12-08T05:09:52.571Z,53.4
2018-12-08T05:10:42.083Z,53.3
2018-12-08T05:11:32.237Z,53.3
2018-12-08T05:12:22.716Z,53.3
2018-12-08T05:13:12.233Z,53.3
2018-12-08T05:14:02.303Z,53.3
2018-12-08T05:14:52.936Z,53.3
2018-12-08T05:15:42.499Z,53.3
2018-12-08T05:16:33.028Z,53.3
2018-12-08T05:17:21.965Z,53.3
2018-12-08T05:18:12.590Z,53.3
2018-12-08T05:19:02.936Z,53.3
2018-12-08T05:19:52.988Z,53.3
2018-12-08T05:20:43.083Z,53.3
2018-12-08T05:21:33.084Z,53.3
2018-12-08T05:22:23.433Z,53.3
2018-12-08T05:23:13.300Z,53.3
2018-12-08T05:24:02.978Z,53.3
2018-12-08T05:24:53.164Z,53.2
2018-12-08T05:25:43.610Z,53.2
2018-12-08T05:26:33.766Z,53.2
2018-12-08T05:27:23.243Z,53.2
2018-12-08T05:28:13.280Z,53.2
2018-12-08T05:29:03.343Z,53.2
2018-12-08T05:29:53.468Z,53.2
2018-12-08T05:30:44.013Z,53.2
2018-12-08T05:31:34.059Z,53.2
2018-12-08T05:32:23.570Z,53.2
2018-12-08T05:33:13.605Z,53.1
2018-12-08T05:34:03.680Z,53.1
2018-12-08T05:34:53.788Z,53.1
2018-12-08T05:35:43.235Z,53.1
2018-12-08T05:36:34.733Z,53.1
2018-12-08T05:37:24.459Z,53.1
2018-12-08T05:38:13.952Z,53.1
2018-12-08T05:39:04.563Z,53.1
2018-12-08T05:39:54.454Z,53.1
2018-12-08T05:40:44.723Z,53.1
2018-12-08T05:41:34.447Z,53.1
2018-12-08T05:42:24.597Z,53.1
2018-12-08T05:43:14.052Z,53.1
2018-12-08T05:44:04.910Z,53.1
2018-12-08T05:44:54.679Z,53.1
2018-12-08T05:45:44.453Z,53.1
2018-12-08T05:46:35.126Z,53.1
2018-12-08T05:47:25.127Z,53.1
2018-12-08T05:48:14.637Z,53.1
2018-12-08T05:49:04.780Z,53.1
2018-12-08T05:49:54.757Z,53
2018-12-08T05:50:45.079Z,53
2018-12-08T05:51:35.294Z,53
2018-12-08T05:52:25.237Z,53
2018-12-08T05:53:15.777Z,53
2018-12-08T05:54:05.042Z,53
2018-12-08T05:54:55.099Z,53
2018-12-08T05:55:45.692Z,53
2018-12-08T05:56:35.192Z,53
2018-12-08T05:57:25.622Z,52.9
2018-12-08T05:58:15.564Z,52.9
2018-12-08T05:59:04.834Z,52.9
2018-12-08T05:59:55.421Z,52.9
2018-12-08T06:00:45.204Z,52.9
2018-12-08T06:01:36.406Z,52.9
2018-12-08T06:02:25.879Z,52.9
2018-12-08T06:03:16.188Z,52.9
2018-12-08T06:04:05.736Z,52.9
2018-12-08T06:04:55.788Z,52.9
2018-12-08T06:05:45.545Z,52.9
2018-12-08T06:06:35.886Z,52.9
2018-12-08T06:07:25.936Z,52.9
2018-12-08T06:08:15.735Z,52.9
2018-12-08T06:09:06.063Z,52.9
2018-12-08T06:09:56.378Z,52.8
2018-12-08T06:10:46.163Z,52.8
2018-12-08T06:11:36.846Z,52.8
2018-12-08T06:12:26.290Z,52.8
2018-12-08T06:13:16.613Z,52.8
2018-12-08T06:14:06.936Z,52.8
2018-12-08T06:14:57.304Z,52.8
2018-12-08T06:15:46.511Z,52.8
2018-12-08T06:16:36.868Z,52.8
2018-12-08T06:17:26.900Z,52.8
2018-12-08T06:18:17.227Z,52.8
2018-12-08T06:19:06.459Z,52.8
2018-12-08T06:19:56.338Z,52.8
2018-12-08T06:20:46.852Z,52.8
2018-12-08T06:21:37.182Z,52.8
2018-12-08T06:22:27.288Z,52.7
2018-12-08T06:23:17.568Z,52.7
2018-12-08T06:24:06.562Z,52.7
2018-12-08T06:24:57.420Z,52.7
2018-12-08T06:25:47.450Z,52.7
2018-12-08T06:26:37.247Z,52.7
2018-12-08T06:27:28.110Z,52.7
2018-12-08T06:28:17.367Z,52.7
2018-12-08T06:29:07.137Z,52.7
2018-12-08T06:29:57.724Z,52.7
2018-12-08T06:30:47.822Z,52.6
2018-12-08T06:31:37.395Z,52.6
2018-12-08T06:32:28.165Z,52.6
2018-12-08T06:33:17.702Z,52.6
2018-12-08T06:34:07.749Z,52.6
2018-12-08T06:34:58.316Z,52.6
2018-12-08T06:35:48.137Z,52.6
2018-12-08T06:36:38.567Z,52.6
2018-12-08T06:37:27.704Z,52.6
2018-12-08T06:38:18.091Z,52.6
2018-12-08T06:39:08.667Z,52.6
2018-12-08T06:39:59.203Z,52.6
2018-12-08T06:40:48.469Z,52.5
2018-12-08T06:41:37.436Z,52.5
2018-12-08T06:42:28.559Z,52.5
2018-12-08T06:43:18.696Z,52.5
2018-12-08T06:44:08.998Z,52.5
2018-12-08T06:44:59.039Z,52.5
2018-12-08T06:45:48.852Z,52.5
2018-12-08T06:46:38.881Z,52.5
2018-12-08T06:47:28.661Z,52.5
2018-12-08T06:48:18.991Z,52.5
2018-12-08T06:49:09.046Z,52.4
2018-12-08T06:49:59.379Z,52.4
2018-12-08T06:50:48.689Z,52.4
2018-12-08T06:51:39.505Z,52.4
2018-12-08T06:52:28.999Z,52.4
2018-12-08T06:53:19.443Z,52.4
2018-12-08T06:54:09.114Z,52.4
2018-12-08T06:54:59.974Z,52.4
2018-12-08T06:55:48.953Z,52.4
2018-12-08T06:56:39.006Z,52.4
2018-12-08T07:03:19.996Z,52.3
2018-12-08T07:05:00.088Z,52.3
2018-12-08T07:05:49.953Z,52.3
2018-12-08T07:06:40.254Z,52.3
2018-12-08T07:07:30.285Z,52.3
2018-12-08T07:08:20.743Z,52.3
2018-12-08T07:09:10.935Z,52.3
2018-12-08T07:10:00.462Z,52.3
2018-12-08T07:10:51.140Z,52.3
2018-12-08T07:11:40.285Z,52.3
2018-12-08T07:12:32.865Z,52.3
2018-12-08T07:13:20.104Z,52.3
2018-12-08T07:14:11.003Z,52.3
2018-12-08T07:15:00.797Z,52.3
2018-12-08T07:15:51.209Z,52.3
2018-12-08T07:16:40.642Z,52.3
2018-12-08T07:17:30.219Z,52.3
2018-12-08T07:18:21.285Z,52.3
2018-12-08T07:19:10.852Z,52.2
2018-12-08T07:20:00.997Z,52.2
2018-12-08T07:20:50.607Z,52.2
2018-12-08T07:21:41.274Z,52.2
2018-12-08T07:22:31.044Z,52.2
2018-12-08T07:23:21.932Z,52.2
2018-12-08T07:24:10.857Z,52.2
2018-12-08T07:25:01.189Z,52.2
2018-12-08T07:25:51.889Z,52.2
2018-12-08T07:26:41.047Z,52.1
2018-12-08T07:27:31.099Z,52.2
2018-12-08T07:28:24.250Z,52.1
2018-12-08T07:29:12.016Z,52.1
2018-12-08T07:30:01.639Z,52.1
2018-12-08T07:30:52.119Z,52.1
2018-12-08T07:31:42.261Z,52.1
2018-12-08T07:32:39.754Z,52.1
2018-12-08T07:33:21.773Z,52.1
2018-12-08T07:34:11.556Z,52.1
2018-12-08T07:35:01.626Z,52.1
2018-12-08T07:35:51.666Z,52.1
2018-12-08T07:36:42.324Z,52.1
2018-12-08T07:37:32.087Z,52.1
2018-12-08T07:38:22.921Z,52.1
2018-12-08T07:39:11.844Z,52.1
2018-12-08T07:40:02.251Z,52
2018-12-08T07:40:52.571Z,52
2018-12-08T07:41:43.153Z,52
2018-12-08T07:42:31.846Z,52
2018-12-08T07:43:22.483Z,52
2018-12-08T07:44:13.063Z,52
2018-12-08T07:45:02.571Z,52
2018-12-08T07:45:52.918Z,52
2018-12-08T07:46:42.950Z,52
2018-12-08T07:47:33.097Z,52
2018-12-08T07:48:22.787Z,52
2018-12-08T07:49:13.123Z,52
2018-12-08T07:56:43.617Z,51.9
2018-12-08T07:57:32.869Z,51.9
2018-12-08T07:58:22.941Z,51.9
2018-12-08T07:59:13.255Z,51.9
2018-12-08T08:00:05.579Z,51.9
2018-12-08T08:00:54.021Z,51.9
2018-12-08T08:01:44.540Z,51.9
2018-12-08T08:02:34.159Z,51.9
2018-12-08T08:03:22.992Z,51.9
2018-12-08T08:04:13.571Z,51.9
2018-12-08T08:05:03.969Z,51.8
2018-12-08T08:05:54.619Z,51.8
2018-12-08T08:06:44.594Z,51.8
2018-12-08T08:07:34.371Z,51.8
2018-12-08T08:08:24.427Z,51.8
2018-12-08T08:09:14.539Z,51.8
2018-12-08T08:10:03.604Z,51.8
2018-12-08T08:10:54.923Z,51.8
2018-12-08T08:11:44.666Z,51.8
2018-12-08T08:12:34.989Z,51.8
2018-12-08T08:13:24.503Z,51.8
2018-12-08T08:14:15.158Z,51.8
2018-12-08T08:15:05.283Z,51.8
2018-12-08T08:15:54.470Z,51.8
2018-12-08T08:16:45.288Z,51.8
2018-12-08T08:17:35.055Z,51.8
2018-12-08T08:18:25.107Z,51.8
2018-12-08T08:19:15.710Z,51.8
2018-12-08T08:20:04.967Z,51.7
2018-12-08T08:20:55.400Z,51.7
2018-12-08T08:21:45.347Z,51.7
2018-12-08T08:22:35.970Z,51.7
2018-12-08T08:23:25.758Z,51.7
2018-12-08T08:24:15.237Z,51.7
2018-12-08T08:25:05.845Z,51.7
2018-12-08T08:25:55.435Z,51.7
2018-12-08T08:26:45.512Z,51.7
2018-12-08T08:27:35.642Z,51.6
2018-12-08T08:28:25.572Z,51.6
2018-12-08T08:29:16.134Z,51.6
2018-12-08T08:30:05.909Z,51.6
2018-12-08T08:30:55.674Z,51.6
2018-12-08T08:31:47.760Z,51.6
2018-12-08T08:32:35.526Z,51.6
2018-12-08T08:33:26.114Z,51.6
2018-12-08T08:34:15.660Z,51.6
2018-12-08T08:35:05.969Z,51.6
2018-12-08T08:35:56.304Z,51.6
2018-12-08T08:36:46.084Z,51.6
2018-12-08T08:37:36.241Z,51.6
2018-12-08T08:38:26.491Z,51.6
2018-12-08T08:39:16.051Z,51.6
2018-12-08T08:40:06.979Z,51.6
2018-12-08T08:40:56.366Z,51.6
2018-12-08T08:41:46.695Z,51.6
2018-12-08T08:42:36.188Z,51.5
2018-12-08T08:43:26.521Z,51.5
2018-12-08T08:44:17.144Z,51.5
2018-12-08T08:45:06.383Z,51.5
2018-12-08T08:45:57.066Z,51.5
2018-12-08T08:46:46.804Z,51.5
2018-12-08T08:47:36.823Z,51.5
2018-12-08T08:48:27.428Z,51.5
2018-12-08T08:49:16.928Z,51.5
2018-12-08T08:50:09.206Z,51.5
2018-12-08T08:50:57.318Z,51.5
2018-12-08T08:51:47.133Z,51.4
2018-12-08T08:52:37.156Z,51.4
2018-12-08T09:08:24.425Z,51.3
2018-12-08T09:09:14.512Z,51.3
2018-12-08T09:10:04.142Z,51.3
2018-12-08T09:10:54.327Z,51.3
2018-12-08T09:11:44.673Z,51.3
2018-12-08T09:12:33.887Z,51.3
2018-12-08T09:13:25.299Z,51.3
2018-12-08T09:14:18.194Z,51.3
2018-12-08T09:15:04.069Z,51.3
2018-12-08T09:15:54.430Z,51.3
2018-12-08T09:16:45.114Z,51.3
2018-12-08T09:17:34.619Z,51.3
2018-12-08T09:18:25.299Z,51.3
2018-12-08T09:19:14.884Z,51.3
2018-12-08T09:20:04.709Z,51.3
2018-12-08T09:20:54.736Z,51.3
2018-12-08T09:21:45.072Z,51.3
2018-12-08T09:22:34.350Z,51.2
2018-12-08T09:23:24.946Z,51.2
2018-12-08T09:24:15.239Z,51.2
2018-12-08T09:25:05.026Z,51.2
2018-12-08T09:25:55.887Z,51.2
2018-12-08T09:26:45.136Z,51.2
2018-12-08T09:27:35.449Z,51.2
2018-12-08T09:28:26.072Z,51.2
2018-12-08T09:29:15.583Z,51.1
2018-12-08T09:30:05.456Z,51.2
2018-12-08T09:30:54.454Z,51.1
2018-12-08T09:31:45.258Z,51.1
2018-12-08T09:32:35.323Z,51.1
2018-12-08T09:33:25.693Z,51.1
2018-12-08T09:34:15.459Z,51.1
2018-12-08T09:35:05.781Z,51.1
2018-12-08T09:35:56.036Z,51.1
2018-12-08T09:36:46.085Z,51.1
2018-12-08T09:37:35.396Z,51.1
2018-12-08T09:38:26.466Z,51.1
2018-12-08T09:39:16.233Z,51.1
2018-12-08T09:40:05.771Z,51.1
2018-12-08T09:40:56.379Z,51.1
2018-12-08T09:41:46.693Z,51.1
2018-12-08T09:42:36.287Z,51.1
2018-12-08T09:43:26.545Z,51.1
2018-12-08T09:44:16.066Z,51.1
2018-12-08T09:45:06.395Z,51.1
2018-12-08T09:45:56.990Z,51.1
2018-12-08T09:46:46.498Z,51
2018-12-08T09:47:36.861Z,51
2018-12-08T09:48:26.610Z,51
2018-12-08T09:49:17.013Z,51
2018-12-08T09:50:07.344Z,51
2018-12-08T09:50:57.060Z,51
2018-12-08T09:51:46.300Z,51
2018-12-08T09:52:36.735Z,50.9
2018-12-08T09:53:27.230Z,51
2018-12-08T09:54:17.307Z,51
2018-12-08T09:55:07.360Z,51
2018-12-08T09:55:57.750Z,50.9
2018-12-08T09:56:47.445Z,50.9
2018-12-08T09:57:37.510Z,50.9
2018-12-08T09:58:27.180Z,50.9
2018-12-08T09:59:18.162Z,50.9
2018-12-08T10:00:07.702Z,50.9
2018-12-08T10:00:58.099Z,50.9
2018-12-08T10:01:48.079Z,50.9
2018-12-08T10:02:37.650Z,50.9
2018-12-08T10:03:27.152Z,50.9
2018-12-08T10:04:17.252Z,50.9
2018-12-08T10:05:07.164Z,50.9
2018-12-08T10:05:57.882Z,50.9
2018-12-08T10:06:47.481Z,50.9
2018-12-08T10:07:38.487Z,50.9
2018-12-08T10:08:28.252Z,50.9
2018-12-08T10:09:18.584Z,50.9
2018-12-08T10:10:08.061Z,50.8
2018-12-08T10:10:58.137Z,50.8
2018-12-08T10:11:48.197Z,50.8
2018-12-08T10:12:38.549Z,50.8
2018-12-08T10:13:28.142Z,50.8
2018-12-08T10:14:18.774Z,50.8
2018-12-08T10:15:08.431Z,50.8
2018-12-08T10:15:59.102Z,50.8
2018-12-08T10:16:49.079Z,50.8
2018-12-08T10:17:39.138Z,50.8
2018-12-08T10:18:28.939Z,50.8
2018-12-08T10:19:18.740Z,50.8
2018-12-08T10:20:08.782Z,50.8
2018-12-08T10:20:59.191Z,50.8
2018-12-08T10:21:49.398Z,50.8
2018-12-08T10:22:39.226Z,50.8
2018-12-08T10:23:29.053Z,50.8
2018-12-08T10:24:19.316Z,50.8
2018-12-08T10:25:09.339Z,50.8
2018-12-08T10:25:59.436Z,50.7
2018-12-08T10:26:49.584Z,50.8
2018-12-08T10:27:39.269Z,50.7
2018-12-08T10:28:29.893Z,50.7
2018-12-08T10:29:19.668Z,50.7
2018-12-08T10:30:09.406Z,50.7
2018-12-08T10:30:58.931Z,50.7
2018-12-08T10:31:49.833Z,50.7
2018-12-08T10:32:39.883Z,50.7
2018-12-08T10:33:31.595Z,50.7
2018-12-08T10:34:20.366Z,50.6
2018-12-08T10:35:10.317Z,50.6
2018-12-08T10:36:00.388Z,50.6
2018-12-08T10:36:50.165Z,50.6
2018-12-08T10:37:40.503Z,50.6
2018-12-08T10:38:30.274Z,50.6
2018-12-08T10:39:20.345Z,50.6
2018-12-08T10:40:10.218Z,50.6
2018-12-08T10:41:00.723Z,50.6
2018-12-08T10:41:50.805Z,50.6
2018-12-08T10:42:40.566Z,50.6
2018-12-08T10:43:30.058Z,50.6
2018-12-08T10:44:20.120Z,50.6
2018-12-08T10:45:10.736Z,50.6
2018-12-08T10:46:00.511Z,50.6
2018-12-08T10:46:50.925Z,50.5
2018-12-08T10:47:40.924Z,50.5
2018-12-08T10:48:30.812Z,50.5
2018-12-08T10:49:21.044Z,50.5
2018-12-08T10:50:11.412Z,50.5
2018-12-08T10:51:01.399Z,50.5
2018-12-08T10:51:51.187Z,50.5
2018-12-08T10:52:41.286Z,50.4
2018-12-08T10:53:31.567Z,50.4
2018-12-08T10:54:21.047Z,50.4
2018-12-08T10:55:11.463Z,50.4
2018-12-08T10:56:01.527Z,50.4
2018-12-08T10:56:50.976Z,50.4
2018-12-08T10:57:41.872Z,50.4
2018-12-08T10:58:31.918Z,50.4
2018-12-08T10:59:21.960Z,50.4
2018-12-08T11:00:11.763Z,50.4
2018-12-08T11:01:02.580Z,50.4
2018-12-08T11:01:51.973Z,50.4
2018-12-08T11:02:42.204Z,50.4
2018-12-08T11:03:31.966Z,50.4
2018-12-08T11:04:22.561Z,50.4
2018-12-08T11:05:11.866Z,50.4
2018-12-08T11:06:02.133Z,50.4
2018-12-08T11:06:51.947Z,50.4
2018-12-08T11:07:42.263Z,50.4
2018-12-08T11:08:32.586Z,50.3
2018-12-08T11:09:22.633Z,50.3
2018-12-08T11:10:12.211Z,50.3
2018-12-08T11:11:02.837Z,50.3
2018-12-08T11:11:52.550Z,50.3
2018-12-08T11:12:42.890Z,50.3
2018-12-08T11:13:31.827Z,50.3
2018-12-08T11:14:22.710Z,50.3
2018-12-08T11:15:12.771Z,50.3
2018-12-08T11:16:02.844Z,50.3
2018-12-08T11:16:53.192Z,50.3
2018-12-08T11:17:43.326Z,50.3
2018-12-08T11:18:33.630Z,50.3
2018-12-08T11:19:22.774Z,50.3
2018-12-08T11:20:13.032Z,50.3
2018-12-08T11:21:03.429Z,50.3
2018-12-08T11:21:53.214Z,50.3
2018-12-08T11:22:43.032Z,50.2
2018-12-08T11:23:32.519Z,50.2
2018-12-08T11:24:23.222Z,50.2
2018-12-08T11:25:12.429Z,50.2
2018-12-08T11:26:03.807Z,50.2
2018-12-08T11:26:53.864Z,50.2
2018-12-08T11:27:43.341Z,50.1
2018-12-08T11:28:33.949Z,50.1
2018-12-08T11:29:23.549Z,50.1
2018-12-08T11:30:13.794Z,50.1
2018-12-08T11:31:02.779Z,50.1
2018-12-08T11:31:53.966Z,50.1
2018-12-08T11:32:43.681Z,50.1
2018-12-08T11:33:34.359Z,50.1
2018-12-08T11:34:24.334Z,50.1
2018-12-08T11:35:13.836Z,50.1
2018-12-08T11:36:03.816Z,50.1
2018-12-08T11:36:54.779Z,50.1
2018-12-08T11:37:44.581Z,50.1
2018-12-08T11:38:34.361Z,50.1
2018-12-08T11:39:24.431Z,50.1
2018-12-08T11:40:14.791Z,50.1
2018-12-08T11:41:04.273Z,50.1
2018-12-08T11:41:54.146Z,50
2018-12-08T11:42:44.674Z,50
2018-12-08T11:43:34.713Z,50
2018-12-08T11:44:24.945Z,50
2018-12-08T11:45:15.101Z,50
2018-12-08T11:46:04.337Z,50
2018-12-08T11:46:54.943Z,50
2018-12-08T11:47:44.713Z,50
2018-12-08T11:48:34.496Z,50
2018-12-08T11:49:25.153Z,50
2018-12-08T11:50:14.935Z,49.9
2018-12-08T11:51:05.225Z,49.9
2018-12-08T11:51:55.020Z,49.9
2018-12-08T11:52:45.132Z,49.9
2018-12-08T11:53:34.858Z,49.9
2018-12-08T11:54:25.295Z,49.9
2018-12-08T11:55:15.778Z,49.9
2018-12-08T11:56:05.605Z,49.9
2018-12-08T11:56:55.684Z,49.9
2018-12-08T11:57:46.058Z,49.9
2018-12-08T11:58:35.450Z,49.9
2018-12-08T11:59:26.117Z,49.9
2018-12-08T12:00:15.582Z,49.9
2018-12-08T12:01:06.192Z,49.9
2018-12-08T12:01:55.684Z,49.9
2018-12-08T12:02:46.289Z,49.9
2018-12-08T12:03:35.828Z,49.9
2018-12-08T12:04:26.130Z,49.9
2018-12-08T12:05:15.911Z,49.9
2018-12-08T12:06:06.239Z,49.8
2018-12-08T12:06:56.017Z,49.9
2018-12-08T12:07:46.389Z,49.8
2018-12-08T12:08:36.404Z,49.8
2018-12-08T12:09:26.844Z,49.8
2018-12-08T12:10:16.513Z,49.8
2018-12-08T12:11:06.585Z,49.8
2018-12-08T12:11:56.366Z,49.8